Time;durP1;ratioP1;P1;durP2;ratioP2;P2;SDS_P1;SDS_P2;PMS_P1;PMS_P2;Temp;Humidity;BMP_temperature;BMP_pressure;BME280_temperature;BME280_humidity;BME280_pressure;Samples;Min_cycle;Max_cycle;Signal;HPM_P1;HPM_P2
2022/12/16 00:00:49;;;;;;;37.77;27.93;;;-1.20;90.00;;;;;;5014083;28;20210;-93
2022/12/16 00:05:54;;;;;;;41.67;27.43;;;-1.10;89.90;;;;;;5044051;23;20267;-91
2022/12/16 00:08:19;;;;;;;35.27;25.47;;;-1.20;89.80;;;;;;5014692;28;20174;-91
2022/12/16 00:10:54;;;;;;;41.67;28.37;;;-1.20;89.90;;;;;;5014480;28;20198;-91
2022/12/16 00:13:20;;;;;;;38.83;26.87;;;-1.10;89.80;;;;;;5013395;28;20214;-91
2022/12/16 00:15:45;;;;;;;36.87;26.47;;;-1.10;89.80;;;;;;5015510;28;20178;-91
2022/12/16 00:18:12;;;;;;;36.97;27.67;;;-1.10;89.80;;;;;;5016523;28;20297;-91
2022/12/16 00:21:27;;;;;;;44.80;27.80;;;-1.10;89.70;;;;;;5018382;28;20202;-91
2022/12/16 00:23:56;;;;;;;37.07;26.27;;;-1.10;89.70;;;;;;5017676;28;20216;-91
2022/12/16 00:26:30;;;;;;;42.63;26.47;;;-1.10;89.70;;;;;;5016006;28;20177;-93
2022/12/16 00:29:16;;;;;;;37.50;26.83;;;-1.10;89.60;;;;;;5014457;28;20177;-93
2022/12/16 00:31:46;;;;;;;37.93;26.00;;;-1.10;89.60;;;;;;5016357;28;20639;-91
2022/12/16 00:34:13;;;;;;;39.30;27.43;;;-1.10;89.60;;;;;;5016837;28;20606;-92
2022/12/16 00:36:54;;;;;;;38.90;26.23;;;-1.00;89.50;;;;;;5049372;23;20195;-90
2022/12/16 00:39:19;;;;;;;40.87;25.83;;;-1.10;89.50;;;;;;4996099;28;20217;-93
2022/12/16 00:41:46;;;;;;;37.90;26.17;;;-1.10;89.50;;;;;;4993789;28;20596;-92
2022/12/16 00:46:41;;;;;;;36.50;26.53;;;-1.00;89.60;;;;;;5013870;28;20689;-92
2022/12/16 00:49:08;;;;;;;38.83;27.27;;;-1.00;89.60;;;;;;5000836;28;20177;-88
2022/12/16 00:51:34;;;;;;;34.23;26.10;;;-1.00;89.60;;;;;;4999505;28;20213;-93
2022/12/16 00:54:00;;;;;;;39.47;27.00;;;-1.00;89.60;;;;;;4985527;28;20207;-90
2022/12/16 00:56:25;;;;;;;34.33;25.97;;;-1.00;89.50;;;;;;4979084;28;20185;-92
2022/12/16 00:58:51;;;;;;;34.17;26.37;;;-1.00;89.50;;;;;;4978689;28;20207;-90
2022/12/16 01:01:17;;;;;;;36.30;27.70;;;-1.00;89.40;;;;;;4978696;28;20182;-92
2022/12/16 01:03:43;;;;;;;39.73;27.83;;;-1.00;89.50;;;;;;4978693;28;20199;-93
2022/12/16 01:06:15;;;;;;;44.57;28.03;;;-0.90;89.40;;;;;;4978824;28;20180;-93
2022/12/16 01:08:47;;;;;;;39.67;26.03;;;-1.00;89.40;;;;;;4979492;28;20177;-93
2022/12/16 01:11:15;;;;;;;34.77;25.77;;;-0.90;89.50;;;;;;4978493;28;20179;-92
2022/12/16 01:13:41;;;;;;;35.83;26.83;;;-0.90;89.50;;;;;;4978021;28;20246;-92
2022/12/16 01:16:06;;;;;;;42.97;28.27;;;-1.00;89.40;;;;;;4978792;28;20269;-92
2022/12/16 01:18:32;;;;;;;43.57;28.40;;;-0.90;89.50;;;;;;4978970;28;20204;-92
2022/12/16 01:21:06;;;;;;;34.80;26.70;;;-0.90;89.40;;;;;;4978738;28;20235;-92
2022/12/16 01:23:32;;;;;;;40.87;27.33;;;-0.90;89.50;;;;;;4978402;28;20204;-92
2022/12/16 01:26:00;;;;;;;40.13;26.97;;;-0.90;89.50;;;;;;4978316;28;20185;-92
2022/12/16 01:28:27;;;;;;;40.83;29.03;;;-1.00;89.50;;;;;;4979288;28;20206;-92
2022/12/16 01:31:00;;;;;;;41.63;27.97;;;-1.00;89.50;;;;;;4979477;28;20276;-92
2022/12/16 01:33:31;;;;;;;36.97;27.67;;;-1.00;89.60;;;;;;4978978;28;20213;-92
2022/12/16 01:36:02;;;;;;;40.83;29.07;;;-1.00;89.60;;;;;;4979577;28;20210;-92
2022/12/16 01:38:28;;;;;;;40.03;29.17;;;-1.00;89.70;;;;;;4979135;28;20198;-92
2022/12/16 01:40:53;;;;;;;36.47;28.10;;;-1.00;89.70;;;;;;4978790;28;20221;-92
2022/12/16 01:43:24;;;;;;;38.10;27.50;;;-0.90;89.70;;;;;;4978430;28;20208;-92
2022/12/16 01:45:52;;;;;;;41.27;28.20;;;-1.00;89.80;;;;;;4979216;28;20668;-92
2022/12/16 01:48:40;;;;;;;41.33;29.43;;;-1.00;89.80;;;;;;4978598;28;20187;-92
2022/12/16 01:51:20;;;;;;;36.27;27.40;;;-0.90;89.90;;;;;;4979022;28;20205;-92
2022/12/16 01:53:49;;;;;;;42.47;28.70;;;-0.90;89.90;;;;;;4979383;28;20202;-92
2022/12/16 01:56:16;;;;;;;39.23;27.93;;;-0.90;90.00;;;;;;4978287;28;20190;-92
2022/12/16 01:58:43;;;;;;;38.50;27.87;;;-0.90;89.90;;;;;;4978887;28;20203;-92
2022/12/16 02:01:09;;;;;;;44.23;31.23;;;-0.90;90.00;;;;;;4978664;28;20186;-92
2022/12/16 02:03:37;;;;;;;45.17;29.33;;;-0.90;90.00;;;;;;4978493;28;20206;-92
2022/12/16 02:06:05;;;;;;;42.07;29.53;;;-0.90;90.00;;;;;;4978729;28;20185;-92
2022/12/16 02:08:33;;;;;;;43.40;29.57;;;-0.90;90.00;;;;;;4979049;28;20186;-92
2022/12/16 02:11:21;;;;;;;42.40;29.73;;;-0.90;90.00;;;;;;4979019;28;20193;-93
2022/12/16 02:14:24;;;;;;;45.57;29.60;;;-0.90;90.10;;;;;;4978772;28;20203;-92
2022/12/16 02:17:14;;;;;;;46.03;30.10;;;-0.90;90.20;;;;;;4979848;28;20179;-92
2022/12/16 02:19:48;;;;;;;43.37;29.83;;;-0.80;90.20;;;;;;4979187;28;20197;-93
2022/12/16 02:22:32;;;;;;;47.03;31.20;;;-0.90;90.20;;;;;;4979460;28;20173;-92
2022/12/16 02:25:40;;;;;;;42.30;29.87;;;-0.90;90.30;;;;;;4979089;28;20639;-92
2022/12/16 02:28:40;;;;;;;43.33;30.17;;;-0.90;90.40;;;;;;4960087;28;20247;-91
2022/12/16 02:31:30;;;;;;;42.80;30.10;;;-0.90;90.40;;;;;;4979541;28;20169;-92
2022/12/16 02:34:23;;;;;;;39.53;29.80;;;-1.00;90.50;;;;;;4979115;28;20246;-92
2022/12/16 02:37:17;;;;;;;43.23;29.47;;;-1.00;90.60;;;;;;4981457;28;20168;-92
2022/12/16 02:39:51;;;;;;;45.80;29.43;;;-0.90;90.70;;;;;;4983230;28;20197;-92
2022/12/16 02:42:30;;;;;;;42.33;30.70;;;-0.90;90.80;;;;;;4982957;28;20264;-92
2022/12/16 02:45:00;;;;;;;45.27;29.53;;;-0.90;90.70;;;;;;4981998;28;20224;-92
2022/12/16 02:47:27;;;;;;;41.77;29.67;;;-0.90;90.70;;;;;;4983122;28;20238;-93
2022/12/16 02:49:54;;;;;;;35.07;27.97;;;-1.00;90.80;;;;;;4982806;28;20191;-92
2022/12/16 02:52:28;;;;;;;42.30;28.83;;;-1.00;90.80;;;;;;4982635;28;20189;-92
2022/12/16 02:55:00;;;;;;;42.10;30.13;;;-1.10;90.90;;;;;;4982445;28;20679;-92
2022/12/16 02:57:32;;;;;;;38.97;28.90;;;-1.10;90.90;;;;;;4982769;28;20250;-92
2022/12/16 03:00:11;;;;;;;45.77;30.33;;;-1.10;91.00;;;;;;4981583;28;20202;-92
2022/12/16 03:03:14;;;;;;;44.40;29.17;;;-1.10;91.10;;;;;;4982651;28;20210;-92
2022/12/16 03:05:47;;;;;;;40.43;29.60;;;-1.20;91.20;;;;;;4951667;28;20182;-92
2022/12/16 03:08:19;;;;;;;42.23;30.63;;;-1.20;91.20;;;;;;4982067;28;20176;-92
2022/12/16 03:10:50;;;;;;;38.73;28.57;;;-1.20;91.20;;;;;;4981171;28;20171;-93
2022/12/16 03:13:18;;;;;;;47.17;31.37;;;-1.20;91.30;;;;;;4982173;28;20218;-92
2022/12/16 03:15:47;;;;;;;45.47;30.30;;;-1.30;91.30;;;;;;4981140;28;20174;-92
2022/12/16 03:18:14;;;;;;;43.10;30.33;;;-1.20;91.30;;;;;;4981679;28;20174;-92
2022/12/16 03:20:50;;;;;;;48.50;31.27;;;-1.20;91.40;;;;;;4981438;28;20171;-92
2022/12/16 03:23:23;;;;;;;47.93;32.00;;;-1.30;91.40;;;;;;4981936;28;20194;-92
2022/12/16 03:25:53;;;;;;;42.83;30.50;;;-1.30;91.50;;;;;;4980533;28;20170;-92
2022/12/16 03:28:36;;;;;;;44.50;29.70;;;-1.30;91.50;;;;;;4980689;28;20174;-93
2022/12/16 03:31:30;;;;;;;57.17;30.87;;;-1.30;91.50;;;;;;4980788;28;20175;-92
2022/12/16 03:34:12;;;;;;;44.73;29.73;;;-1.30;91.50;;;;;;4975197;28;20241;-92
2022/12/16 03:36:40;;;;;;;42.23;29.03;;;-1.30;91.60;;;;;;4980562;28;20178;-92
2022/12/16 03:39:07;;;;;;;49.77;30.83;;;-1.30;91.50;;;;;;4980638;28;20201;-92
2022/12/16 03:41:34;;;;;;;43.33;29.23;;;-1.40;91.50;;;;;;4980270;28;20170;-92
2022/12/16 03:44:00;;;;;;;43.97;30.70;;;-1.40;91.50;;;;;;4979955;28;20198;-92
2022/12/16 03:46:26;;;;;;;47.47;30.70;;;-1.40;91.60;;;;;;4979572;28;20194;-92
2022/12/16 03:48:52;;;;;;;53.47;30.20;;;-1.50;91.50;;;;;;4979479;28;20192;-92
2022/12/16 03:51:18;;;;;;;45.17;29.90;;;-1.50;91.50;;;;;;4981178;28;20178;-92
2022/12/16 03:53:45;;;;;;;38.70;27.87;;;-1.50;91.40;;;;;;4980323;28;20198;-92
2022/12/16 03:56:11;;;;;;;45.20;31.23;;;-1.60;91.40;;;;;;4980416;28;20179;-92
2022/12/16 03:58:39;;;;;;;42.30;29.70;;;-1.60;91.30;;;;;;4980091;28;20201;-92
2022/12/16 04:01:08;;;;;;;42.63;29.43;;;-1.80;91.30;;;;;;4979913;28;20182;-92
2022/12/16 04:03:34;;;;;;;45.60;29.43;;;-1.90;91.30;;;;;;4979496;28;20566;-92
2022/12/16 04:05:59;;;;;;;44.17;30.83;;;-1.80;91.30;;;;;;4979510;28;20178;-92
2022/12/16 04:08:25;;;;;;;43.63;30.40;;;-1.80;91.30;;;;;;4979181;28;20177;-92
2022/12/16 04:24:34;;;;;;;40.37;29.03;;;-2.10;91.00;;;;;;4995952;28;20204;-92
2022/12/16 04:34:24;;;;;;;45.53;29.73;;;-2.10;91.00;;;;;;4996206;28;20195;-92
